02MA weather

Cuttyhunk Heliport
Gosnold, Massachusetts, United States

Public forecast

Using degrees Fahrenheit for public forecast. Weather courtesy of forecast.io.

METAR (pilot weather report)

Closest report is Martha's Vineyard Airport, 14.2 nm (26.2 km) E. Retrieved 2019/07/21 07:53 UTC (41 minutes ago):

KMVY 210753Z AUTO 27004KT 6SM BR CLR 24/22 A2974 RMK AO2 SLP068 T02440222

TAF (pilot weather forecast)

Closest forecast is Cape Cod Coast Guard Air Station, 23.2 nm (42.9 km) NE. Retrieved 2019/07/21 06:42 UTC (2 hours ago):

TAF KFMH 210540Z 2106/2206 24007KT P6SM SCT250 FM211700 24011KT P6SM SCT250 FM220000 25009KT P6SM SCT060 FM220200 27007KT P6SM SCT070 FM220400 29006KT P6SM SCT080